Time,TemperatureF,DewpointF,PressureIn,WindDirection,WindDirectionDegrees,WindSpeedMPH,WindSpeedGustMPH,Humidity,HourlyPrecipIn,Conditions,Clouds,dailyrainin,SoftwareType,DateUTC
2013-08-06 00:02:00,71.0,57.0,-100.00,SSW,201,5.0,-999.0,62,0.00,,,0.00,,2013-08-06 04:02:00,
2013-08-06 00:11:00,71.0,57.0,-100.00,SSW,201,5.0,-999.0,62,0.00,,,0.00,,2013-08-06 04:11:00,
2013-08-06 00:54:00,71.0,56.0,-100.00,SSW,212,4.0,-999.0,59,0.00,,,0.00,,2013-08-06 04:54:00,
2013-08-06 01:02:00,71.0,56.0,-100.00,SSW,212,4.0,-999.0,59,0.00,,,0.00,,2013-08-06 05:02:00,
2013-08-06 01:11:00,71.0,56.0,-100.00,SSW,212,4.0,-999.0,59,0.00,,,0.00,,2013-08-06 05:11:00,
2013-08-06 01:53:00,72.0,60.0,-100.00,SSW,207,3.0,-999.0,66,0.00,,,0.00,,2013-08-06 05:53:00,
2013-08-06 02:02:00,72.0,60.0,-100.00,SSW,207,3.0,-999.0,66,0.00,,,0.00,,2013-08-06 06:02:00,
2013-08-06 02:12:00,72.0,60.0,-100.00,SSW,207,3.0,-999.0,66,0.00,,,0.00,,2013-08-06 06:12:00,
2013-08-06 02:52:00,72.0,60.0,-100.00,WSW,243,9.0,-999.0,67,0.00,,,0.00,,2013-08-06 06:52:00,
2013-08-06 03:01:00,72.0,60.0,-100.00,WSW,243,9.0,-999.0,67,0.00,,,0.00,,2013-08-06 07:01:00,
2013-08-06 03:12:00,72.0,60.0,-100.00,WSW,243,9.0,-999.0,67,0.00,,,0.00,,2013-08-06 07:12:00,
2013-08-06 03:53:00,70.0,61.0,-100.00,SW,233,4.0,-999.0,73,0.00,,,0.00,,2013-08-06 07:53:00,
2013-08-06 04:02:00,70.0,61.0,-100.00,SW,233,4.0,-999.0,73,0.00,,,0.00,,2013-08-06 08:02:00,
2013-08-06 04:11:00,70.0,61.0,-100.00,SW,233,4.0,-999.0,73,0.00,,,0.00,,2013-08-06 08:11:00,
2013-08-06 04:52:00,71.0,62.0,-100.00,SW,217,2.0,-999.0,73,0.00,,,0.00,,2013-08-06 08:52:00,
2013-08-06 05:01:00,71.0,62.0,-100.00,SW,217,2.0,-999.0,73,0.00,,,0.00,,2013-08-06 09:01:00,
2013-08-06 05:11:00,71.0,62.0,-100.00,SW,217,2.0,-999.0,73,0.00,,,0.00,,2013-08-06 09:11:00,
2013-08-06 05:52:00,71.0,63.0,-100.00,SW,221,1.0,-999.0,76,0.00,,,0.00,,2013-08-06 09:52:00,
2013-08-06 06:01:00,71.0,63.0,-100.00,SW,221,1.0,-999.0,76,0.00,,,0.00,,2013-08-06 10:01:00,
2013-08-06 06:53:00,69.0,62.0,-100.00,ESE,120,2.0,-999.0,79,0.00,,,0.00,,2013-08-06 10:53:00,
2013-08-06 07:02:00,69.0,62.0,-100.00,ESE,120,2.0,-999.0,79,0.00,,,0.00,,2013-08-06 11:02:00,
2013-08-06 07:11:00,69.0,62.0,-100.00,ESE,120,2.0,-999.0,79,0.00,,,0.00,,2013-08-06 11:11:00,
2013-08-06 07:53:00,71.0,62.0,-100.00,SE,136,3.0,-999.0,73,0.00,,,0.00,,2013-08-06 11:53:00,
2013-08-06 08:02:00,71.0,62.0,-100.00,SE,136,3.0,-999.0,73,0.00,,,0.00,,2013-08-06 12:02:00,
2013-08-06 08:11:00,71.0,62.0,-100.00,SE,136,3.0,-999.0,73,0.00,,,0.00,,2013-08-06 12:11:00,
2013-08-06 08:52:00,71.0,63.0,-100.00,SSE,158,4.0,-999.0,75,0.00,,,0.00,,2013-08-06 12:52:00,
2013-08-06 09:02:00,71.0,63.0,-100.00,SSE,158,4.0,-999.0,75,0.00,,,0.00,,2013-08-06 13:02:00,
2013-08-06 09:11:00,71.0,63.0,-100.00,SSE,158,4.0,-999.0,75,0.00,,,0.00,,2013-08-06 13:11:00,
2013-08-06 10:01:00,73.0,64.0,-100.00,SSE,151,7.0,-999.0,74,0.00,,,0.00,,2013-08-06 14:01:00,
2013-08-06 10:11:00,73.0,64.0,-100.00,SSE,151,7.0,-999.0,74,0.00,,,0.00,,2013-08-06 14:11:00,
2013-08-06 10:53:00,74.0,64.0,-100.00,SSE,147,8.0,-999.0,71,0.00,,,0.00,,2013-08-06 14:53:00,
2013-08-06 11:02:00,74.0,64.0,-100.00,SSE,147,8.0,-999.0,71,0.00,,,0.00,,2013-08-06 15:02:00,
2013-08-06 11:12:00,74.0,64.0,-100.00,SSE,147,8.0,-999.0,71,0.00,,,0.00,,2013-08-06 15:12:00,
2013-08-06 12:52:00,74.0,61.0,-100.00,South,188,8.0,-999.0,64,-99.99,,,0.00,,2013-08-06 16:52:00,
2013-08-06 13:02:00,74.0,61.0,-100.00,South,188,8.0,-999.0,64,-99.99,,,0.00,,2013-08-06 17:02:00,
2013-08-06 13:11:00,74.0,61.0,-100.00,South,188,8.0,-999.0,64,-99.99,,,0.00,,2013-08-06 17:11:00,
2013-08-06 13:52:00,72.0,59.0,-100.00,WSW,241,9.0,-999.0,64,0.00,,,0.00,,2013-08-06 17:52:00,
2013-08-06 14:02:00,72.0,59.0,-100.00,WSW,241,9.0,-999.0,64,0.00,,,0.00,,2013-08-06 18:02:00,
2013-08-06 14:11:00,72.0,59.0,-100.00,WSW,241,9.0,-999.0,64,0.00,,,0.00,,2013-08-06 18:11:00,
2013-08-06 14:52:00,71.0,60.0,-100.00,West,267,7.0,-999.0,69,0.00,,,0.00,,2013-08-06 18:52:00,
2013-08-06 15:01:00,71.0,60.0,-100.00,West,267,7.0,-999.0,69,0.00,,,0.00,,2013-08-06 19:01:00,
2013-08-06 15:11:00,71.0,60.0,-100.00,West,267,7.0,-999.0,69,0.00,,,0.00,,2013-08-06 19:11:00,
2013-08-06 15:52:00,69.0,61.0,-100.00,West,277,9.0,-999.0,76,0.00,,,0.00,,2013-08-06 19:52:00,
2013-08-06 16:01:00,69.0,61.0,-100.00,West,277,9.0,-999.0,76,0.00,,,0.00,,2013-08-06 20:01:00,
2013-08-06 16:11:00,69.0,61.0,-100.00,West,277,9.0,-999.0,76,0.00,,,0.00,,2013-08-06 20:11:00,
2013-08-06 16:52:00,69.0,60.0,-100.00,SW,222,3.0,-999.0,72,0.00,,,0.00,,2013-08-06 20:52:00,
2013-08-06 17:01:00,69.0,60.0,-100.00,SW,222,3.0,-999.0,72,0.00,,,0.00,,2013-08-06 21:01:00,
2013-08-06 17:12:00,69.0,60.0,-100.00,SW,222,3.0,-999.0,72,0.00,,,0.00,,2013-08-06 21:12:00,
2013-08-06 17:52:00,71.0,62.0,-100.00,SSW,192,2.0,-999.0,73,0.00,,,0.00,,2013-08-06 21:52:00,
2013-08-06 18:01:00,71.0,62.0,-100.00,SSW,192,2.0,-999.0,73,0.00,,,0.00,,2013-08-06 22:01:00,
2013-08-06 18:11:00,71.0,62.0,-100.00,SSW,192,2.0,-999.0,73,0.00,,,0.00,,2013-08-06 22:11:00,
2013-08-06 18:53:00,69.0,63.0,-100.00,SE,137,5.0,-999.0,80,0.00,,,0.00,,2013-08-06 22:53:00,
2013-08-06 19:02:00,69.0,63.0,-100.00,SE,137,5.0,-999.0,80,0.00,,,0.00,,2013-08-06 23:02:00,
2013-08-06 19:11:00,69.0,63.0,-100.00,SE,137,5.0,-999.0,80,0.00,,,0.00,,2013-08-06 23:11:00,
2013-08-06 19:52:00,70.0,62.0,-100.00,SSW,193,6.0,-999.0,75,0.00,,,0.00,,2013-08-06 23:52:00,
2013-08-06 20:01:00,70.0,62.0,-100.00,SSW,193,6.0,-999.0,75,0.00,,,0.00,,2013-08-07 00:01:00,
2013-08-06 20:11:00,70.0,62.0,-100.00,SSW,193,6.0,-999.0,75,0.00,,,0.00,,2013-08-07 00:11:00,
2013-08-06 20:52:00,69.0,61.0,-100.00,SSW,209,6.0,-999.0,76,0.00,,,0.00,,2013-08-07 00:52:00,
2013-08-06 21:01:00,69.0,61.0,-100.00,SSW,209,6.0,-999.0,76,0.00,,,0.00,,2013-08-07 01:01:00,
2013-08-06 21:11:00,69.0,61.0,-100.00,SSW,209,6.0,-999.0,76,0.00,,,0.00,,2013-08-07 01:11:00,
2013-08-06 21:53:00,70.0,61.0,-100.00,SSW,210,7.0,-999.0,73,0.00,,,0.00,,2013-08-07 01:53:00,
2013-08-06 22:02:00,70.0,61.0,-100.00,SSW,210,7.0,-999.0,73,0.00,,,0.00,,2013-08-07 02:02:00,
2013-08-06 22:11:00,70.0,61.0,-100.00,SSW,210,7.0,-999.0,73,0.00,,,0.00,,2013-08-07 02:11:00,
2013-08-06 22:53:00,72.0,61.0,-100.00,SSW,205,7.0,-999.0,69,0.00,,,0.00,,2013-08-07 02:53:00,
2013-08-06 23:01:00,72.0,61.0,-100.00,SSW,205,7.0,-999.0,69,0.00,,,0.00,,2013-08-07 03:01:00,
2013-08-06 23:12:00,72.0,61.0,-100.00,SSW,205,7.0,-999.0,69,0.00,,,0.00,,2013-08-07 03:12:00,
2013-08-06 23:52:00,71.0,61.0,-100.00,SSW,197,8.0,-999.0,70,0.00,,,0.00,,2013-08-07 03:52:00,